Ámsterdam, Países Bajos

9:09 AM CEST en Julio 19, 2018 (GMT +0200)
Binnengasthuisterrein gebouw 1 | | Change Station

Alt 26 ft 52.37 °N, 4.89 °E | Updated 30 seconds ago

Despejado
Despejado
70.8 ° F
Sensación térmica 76 ° F
N
3
Viento Variable Viento desde NNO
Gusts 0.0 mph

Hoy
Alta -- | Baja -- ° F
--% Posibilidad de precipitaciones
Ayer
Alta -- | Baja -- ° F
Precip. -- pul
Presión 30.09 pul
Visibilidad -9999.0 Millas
Nubes
Índice de calor 76 ° F
Punto de rocío 56 ° F
Humedad 59%
Precipitaciones 0.00 pul
Espesor de la nieve No disponible.
5:41 AM 9:51 PM
Creciente, 44% visible
METAR EHAM 190655Z 33005KT 280V010 CAVOK 20/16 Q1019 NOSIG
Presión 30.09 pul
Visibilidad -9999.0 Millas
Nubes
Índice de calor 76 ° F
Punto de rocío 56 ° F
Humedad 59%
Precipitaciones 0.00 pul
Espesor de la nieve No disponible.
5:41 AM 9:51 PM
Creciente, 44% visible
METAR EHAM 190655Z 33005KT 280V010 CAVOK 20/16 Q1019 NOSIG

Get Severe Weather Alerts

Thanks for signing up!

Be on the lookout for a verification email in your inbox.

You'll start receiving the daily forecast at 6 AM.

×

10-Day Weather Forecast

×

Almanac

Astronomía

Jul. 19, 2018 Salida Puesta
Hora real
Crepúsculo civil
Crepúsculo náutico
Crepúsculo astronómico
Luna
Horas de luz
Horas de luz
Tomorrow will be .
, % of the Moon is Illuminated

Extremos de hoy

Máximos del país Bajas del país

Community

WunderPhotos

Category 6

Welcome to Category 6. This is the collective home for Weather Underground's featured writeups by Dr. Jeff Masters (right), Bob Henson (left), Chris Burt, and other regular contributors.

Nearby

Calidad del aire

  Calidad del aire Índice AQ Contaminante
Not available.

Grosos de nieve

Estación Profundido Altura

Actividad de terremotos

Ciudad Distance Mag. Tiempo y dato
Magnitud mínima muestra es 2,5.

Temperaturas de aguas costeras

Lugar Temperatura

Stations

Estaciones meteorológicas cercanas

Ubicación de la estación Temp. Vientos helados Punto de rocío Humedad Viento Precip. Alt Actualizado Tipo